createdAt,value
2017-06-17T00:00:22.985Z,101810
2017-06-17T00:02:51.135Z,101814
2017-06-17T00:05:19.310Z,101819
2017-06-17T00:07:47.472Z,101819
2017-06-17T00:10:16.382Z,101809
2017-06-17T00:12:44.576Z,101819
2017-06-17T00:15:12.725Z,101816
2017-06-17T00:17:40.889Z,101816
2017-06-17T00:20:09.841Z,101822
2017-06-17T00:22:38.022Z,101814
2017-06-17T00:25:06.192Z,101820
2017-06-17T00:27:34.364Z,101823
2017-06-17T00:30:02.540Z,101821
2017-06-17T00:32:30.709Z,101817
2017-06-17T00:34:58.882Z,101816
2017-06-17T00:37:27.031Z,101822
2017-06-17T00:39:55.174Z,101816
2017-06-17T00:42:24.139Z,101823
2017-06-17T00:44:52.764Z,101826
2017-06-17T00:47:20.914Z,101827
2017-06-17T00:49:49.854Z,101834
2017-06-17T00:52:18.000Z,101829
2017-06-17T00:54:46.150Z,101822
2017-06-17T00:57:15.090Z,101823
2017-06-17T00:59:43.256Z,101825
2017-06-17T01:02:11.405Z,101815
2017-06-17T01:04:40.350Z,101812
2017-06-17T01:07:08.515Z,101810
2017-06-17T01:09:36.674Z,101813
2017-06-17T01:12:04.869Z,101814
2017-06-17T01:14:33.038Z,101819
2017-06-17T01:17:01.208Z,101813
2017-06-17T01:19:29.416Z,101817
2017-06-17T01:21:57.590Z,101810
2017-06-17T01:24:25.740Z,101807
2017-06-17T01:26:53.949Z,101811
2017-06-17T01:29:22.089Z,101810
2017-06-17T01:31:50.233Z,101808
2017-06-17T01:34:19.197Z,101808
2017-06-17T01:36:47.365Z,101811
2017-06-17T01:39:15.530Z,101820
2017-06-17T01:41:43.707Z,101806
2017-06-17T01:44:11.849Z,101816
2017-06-17T01:46:40.019Z,101808
2017-06-17T01:49:08.212Z,101812
2017-06-17T01:51:36.366Z,101805
2017-06-17T01:54:04.514Z,101804
2017-06-17T01:56:32.713Z,101813
2017-06-17T01:59:00.867Z,101809
2017-06-17T02:01:29.034Z,101810
2017-06-17T02:03:57.234Z,101807
2017-06-17T02:06:25.389Z,101800
2017-06-17T02:08:54.320Z,101792
2017-06-17T02:11:22.522Z,101801
2017-06-17T02:13:50.685Z,101802
2017-06-17T02:16:18.849Z,101798
2017-06-17T02:18:47.360Z,101802
2017-06-17T02:21:21.126Z,101804
2017-06-17T02:23:49.330Z,101794
2017-06-17T02:26:17.478Z,101809
2017-06-17T02:28:45.644Z,101806
2017-06-17T02:31:13.847Z,101811
2017-06-17T02:33:42.024Z,101799
2017-06-17T02:36:10.174Z,101803
2017-06-17T02:38:38.379Z,101800
2017-06-17T02:41:06.542Z,101805
2017-06-17T02:43:34.721Z,101794
2017-06-17T02:46:02.917Z,101797
2017-06-17T02:48:31.065Z,101802
2017-06-17T02:50:59.217Z,101799
2017-06-17T02:53:27.399Z,101798
2017-06-17T02:55:55.545Z,101806
2017-06-17T02:58:24.476Z,101801
2017-06-17T03:00:52.657Z,101806
2017-06-17T03:03:20.821Z,101809
2017-06-17T03:05:48.965Z,101819
2017-06-17T03:08:17.926Z,101818
2017-06-17T03:10:46.078Z,101821
2017-06-17T03:13:14.218Z,101814
2017-06-17T03:15:42.424Z,101818
2017-06-17T03:18:10.565Z,101820
2017-06-17T03:20:38.737Z,101822
2017-06-17T03:23:06.918Z,101814
2017-06-17T03:25:35.070Z,101821
2017-06-17T03:28:04.004Z,101823
2017-06-17T03:30:32.180Z,101829
2017-06-17T03:33:00.329Z,101827
2017-06-17T03:35:28.477Z,101823
2017-06-17T03:37:56.654Z,101832
2017-06-17T03:40:25.588Z,101835
2017-06-17T03:42:53.757Z,101827
2017-06-17T03:45:21.945Z,101827
2017-06-17T03:47:50.087Z,101843
2017-06-17T03:50:19.018Z,101842
2017-06-17T03:52:47.214Z,101836
2017-06-17T03:55:15.386Z,101841
2017-06-17T03:57:43.550Z,101850
2017-06-17T04:00:11.744Z,101843
2017-06-17T04:02:39.911Z,101843
2017-06-17T04:05:08.080Z,101850
2017-06-17T04:07:36.250Z,101853
2017-06-17T04:10:04.424Z,101846
2017-06-17T04:12:32.587Z,101844
2017-06-17T04:15:00.784Z,101847
2017-06-17T04:17:28.952Z,101834
2017-06-17T04:19:57.119Z,101840
2017-06-17T04:22:25.289Z,101844
2017-06-17T04:24:53.448Z,101850
2017-06-17T04:27:21.594Z,101847
2017-06-17T04:29:50.555Z,101840
2017-06-17T04:32:18.713Z,101848
2017-06-17T04:34:46.881Z,101853
2017-06-17T04:37:15.073Z,101847
2017-06-17T04:39:43.240Z,101848
2017-06-17T04:42:11.385Z,101849
2017-06-17T04:44:39.602Z,101843
2017-06-17T04:47:07.757Z,101841
2017-06-17T04:49:35.918Z,101848
2017-06-17T04:52:04.105Z,101843
2017-06-17T04:54:32.255Z,101852
2017-06-17T04:57:00.405Z,101845
2017-06-17T04:59:29.368Z,101855
2017-06-17T05:01:57.539Z,101848
2017-06-17T05:04:25.692Z,101849
2017-06-17T05:06:53.889Z,101848
2017-06-17T05:09:22.045Z,101855
2017-06-17T05:11:50.196Z,101865
2017-06-17T05:14:18.392Z,101859
2017-06-17T05:16:46.561Z,101848
2017-06-17T05:19:14.978Z,101853
2017-06-17T05:21:43.313Z,101856
2017-06-17T05:24:11.476Z,101864
2017-06-17T05:26:40.409Z,101851
2017-06-17T05:29:08.606Z,101848
2017-06-17T05:31:36.761Z,101847
2017-06-17T05:34:04.927Z,101847
2017-06-17T05:36:33.107Z,101845
2017-06-17T05:39:01.280Z,101846
2017-06-17T05:41:29.448Z,101850
2017-06-17T05:43:57.613Z,101848
2017-06-17T05:46:25.762Z,101848
2017-06-17T05:48:54.672Z,101869
2017-06-17T05:51:22.870Z,101853
2017-06-17T05:53:51.033Z,101859
2017-06-17T05:56:19.200Z,101853
2017-06-17T05:58:47.396Z,101855
2017-06-17T06:01:15.561Z,101870
2017-06-17T06:03:43.736Z,101870
2017-06-17T06:06:11.939Z,101878
2017-06-17T06:08:40.104Z,101869
2017-06-17T06:11:08.267Z,101888
2017-06-17T06:13:36.456Z,101885
2017-06-17T06:16:04.601Z,101887
2017-06-17T06:18:32.765Z,101882
2017-06-17T06:21:00.964Z,101883
2017-06-17T06:23:29.116Z,101876
2017-06-17T06:25:57.280Z,101878
2017-06-17T06:28:25.449Z,101862
2017-06-17T06:30:53.594Z,101881
2017-06-17T06:33:22.506Z,101872
2017-06-17T06:35:50.685Z,101870
2017-06-17T06:38:18.825Z,101879
2017-06-17T06:40:46.969Z,101888
2017-06-17T06:43:15.160Z,101900
2017-06-17T06:45:43.313Z,101896
2017-06-17T06:48:11.454Z,101906
2017-06-17T06:50:40.421Z,101910
2017-06-17T06:53:08.584Z,101902
2017-06-17T06:55:37.565Z,101908
2017-06-17T06:58:05.745Z,101930
2017-06-17T07:00:33.892Z,101912
2017-06-17T07:03:02.067Z,101918
2017-06-17T07:05:30.578Z,101912
2017-06-17T07:07:58.745Z,101914
2017-06-17T07:10:26.908Z,101914
2017-06-17T07:12:55.097Z,101921
2017-06-17T07:15:23.845Z,101921
2017-06-17T07:17:52.005Z,101924
2017-06-17T07:20:20.985Z,101920
2017-06-17T07:22:49.129Z,101923
2017-06-17T07:25:17.301Z,101908
2017-06-17T07:27:45.518Z,101926
2017-06-17T07:30:14.483Z,101930
2017-06-17T07:32:42.632Z,101936
2017-06-17T07:35:10.811Z,101931
2017-06-17T07:37:38.985Z,101938
2017-06-17T07:40:07.148Z,101951
2017-06-17T07:42:35.321Z,101955
2017-06-17T07:45:03.467Z,101957
2017-06-17T07:47:32.396Z,101942
2017-06-17T07:50:00.593Z,101957
2017-06-17T07:52:28.757Z,101948
2017-06-17T07:54:56.919Z,101954
2017-06-17T07:57:25.109Z,101956
2017-06-17T07:59:53.253Z,101959
2017-06-17T08:02:21.417Z,101960
2017-06-17T08:04:49.908Z,101953
2017-06-17T08:07:18.057Z,101954
2017-06-17T08:09:46.983Z,101953
2017-06-17T08:12:15.175Z,101948
2017-06-17T08:14:43.322Z,101954
2017-06-17T08:17:11.473Z,101945
2017-06-17T08:19:39.672Z,101942
2017-06-17T08:22:07.821Z,101970
2017-06-17T08:24:35.999Z,101968
2017-06-17T08:27:04.255Z,101964
2017-06-17T08:29:32.422Z,101966
2017-06-17T08:32:00.566Z,101962
2017-06-17T08:34:28.764Z,101958
2017-06-17T08:36:56.919Z,101956
2017-06-17T08:39:25.071Z,101959
2017-06-17T08:41:53.247Z,101957
2017-06-17T08:44:21.394Z,101952
2017-06-17T08:46:49.541Z,101939
2017-06-17T08:49:17.736Z,101955
2017-06-17T08:51:45.882Z,101961
2017-06-17T08:54:14.032Z,101971
2017-06-17T08:56:42.230Z,101974
2017-06-17T08:59:10.404Z,101974
2017-06-17T09:01:38.555Z,101970
2017-06-17T09:04:06.737Z,101972
2017-06-17T09:06:34.905Z,101974
2017-06-17T09:09:03.069Z,101966
2017-06-17T09:11:31.274Z,101987
2017-06-17T09:13:59.438Z,101996
2017-06-17T09:16:27.582Z,102000
2017-06-17T09:18:55.777Z,101998
2017-06-17T09:21:23.925Z,101985
2017-06-17T09:23:52.069Z,101980
2017-06-17T09:26:20.240Z,101996
2017-06-17T09:28:48.401Z,102001
2017-06-17T09:31:16.553Z,102010
2017-06-17T09:33:44.728Z,102007
2017-06-17T09:36:12.879Z,102004
2017-06-17T09:38:41.030Z,102003
2017-06-17T09:41:09.982Z,102002
2017-06-17T09:43:38.148Z,102002
2017-06-17T09:46:06.292Z,102002
2017-06-17T09:48:34.476Z,102014
2017-06-17T09:51:02.637Z,102019
2017-06-17T09:53:30.790Z,102018
2017-06-17T09:55:58.975Z,102014
2017-06-17T09:58:27.904Z,101997
2017-06-17T10:00:56.047Z,102002
2017-06-17T10:03:24.991Z,102001
2017-06-17T10:05:53.154Z,101999
2017-06-17T10:08:21.316Z,102020
2017-06-17T10:10:49.599Z,102019
2017-06-17T10:13:17.778Z,102020
2017-06-17T10:15:45.975Z,102018
2017-06-17T10:18:14.144Z,102020
2017-06-17T10:20:47.886Z,102023
2017-06-17T10:23:16.117Z,102025
2017-06-17T10:25:44.282Z,102046
2017-06-17T10:28:12.428Z,102035
2017-06-17T10:30:40.603Z,102033
2017-06-17T10:33:08.785Z,102033
2017-06-17T10:35:36.948Z,102044
2017-06-17T10:38:05.128Z,102032
2017-06-17T10:40:38.389Z,102046
2017-06-17T10:43:06.571Z,102045
2017-06-17T10:45:35.517Z,102051
2017-06-17T10:48:03.725Z,102054
2017-06-17T10:50:31.895Z,102052
2017-06-17T10:53:00.065Z,102059
2017-06-17T10:55:28.228Z,102073
2017-06-17T10:57:56.419Z,102080
2017-06-17T11:00:24.566Z,102065
2017-06-17T11:02:52.725Z,102063
2017-06-17T11:05:20.898Z,102066
2017-06-17T11:07:49.042Z,102092
2017-06-17T11:10:17.959Z,102075
2017-06-17T11:12:46.156Z,102066
2017-06-17T11:15:14.313Z,102090
2017-06-17T11:17:42.464Z,102073
2017-06-17T11:20:10.650Z,102086
2017-06-17T11:22:38.794Z,102097
2017-06-17T11:25:07.724Z,102086
2017-06-17T11:27:35.906Z,102092
2017-06-17T11:30:04.047Z,102087
2017-06-17T11:32:32.194Z,102081
2017-06-17T11:35:00.382Z,102087
2017-06-17T11:37:28.533Z,102075
2017-06-17T11:39:56.706Z,102081
2017-06-17T11:42:24.889Z,102081
2017-06-17T11:44:53.036Z,102084
2017-06-17T11:47:21.207Z,102084
2017-06-17T11:49:49.416Z,102081
2017-06-17T11:52:17.595Z,102081
2017-06-17T11:54:45.764Z,102084
2017-06-17T11:57:13.945Z,102070
2017-06-17T11:59:42.116Z,102082
2017-06-17T12:02:10.298Z,102081
2017-06-17T12:04:39.256Z,102085
2017-06-17T12:07:07.405Z,102081
2017-06-17T12:09:35.576Z,102079
2017-06-17T12:12:03.758Z,102084
2017-06-17T12:14:31.917Z,102082
2017-06-17T12:17:00.085Z,102074
2017-06-17T12:19:28.263Z,102079
2017-06-17T12:21:56.431Z,102082
2017-06-17T12:24:25.372Z,102085
2017-06-17T12:26:53.563Z,102087
2017-06-17T12:29:21.725Z,102075
2017-06-17T12:31:49.869Z,102075
2017-06-17T12:34:18.064Z,102084
2017-06-17T12:36:46.215Z,102080
2017-06-17T12:39:14.387Z,102088
2017-06-17T12:41:42.566Z,102094
2017-06-17T12:44:10.725Z,102091
2017-06-17T12:46:38.883Z,102093
2017-06-17T12:49:07.838Z,102091
2017-06-17T12:51:35.985Z,102083
2017-06-17T12:54:04.161Z,102091
2017-06-17T12:56:32.345Z,102089
2017-06-17T12:59:00.519Z,102089
2017-06-17T13:01:28.665Z,102098
2017-06-17T13:03:56.845Z,102104
2017-06-17T13:06:25.013Z,102109
2017-06-17T13:08:53.157Z,102099
2017-06-17T13:11:21.354Z,102094
2017-06-17T13:13:50.267Z,102102
2017-06-17T13:16:18.440Z,102097
2017-06-17T13:18:46.649Z,102103
2017-06-17T13:21:14.844Z,102102
2017-06-17T13:23:43.022Z,102095
2017-06-17T13:26:11.230Z,102103
2017-06-17T13:28:39.400Z,102095
2017-06-17T13:31:07.581Z,102099
2017-06-17T13:33:35.762Z,102102
2017-06-17T13:36:03.907Z,102118
2017-06-17T13:38:32.829Z,102105
2017-06-17T13:41:01.010Z,102096
2017-06-17T13:43:29.157Z,102107
2017-06-17T13:45:57.302Z,102113
2017-06-17T13:48:25.494Z,102101
2017-06-17T13:50:54.427Z,102105
2017-06-17T13:53:22.574Z,102114
2017-06-17T13:55:51.518Z,102119
2017-06-17T13:58:19.685Z,102119
2017-06-17T14:00:47.860Z,102114
2017-06-17T14:03:16.038Z,102113
2017-06-17T14:05:44.208Z,102105
2017-06-17T14:08:12.384Z,102104
2017-06-17T14:10:40.562Z,102110
2017-06-17T14:13:08.735Z,102107
2017-06-17T14:15:36.908Z,102118
2017-06-17T14:18:05.097Z,102117
2017-06-17T14:20:33.274Z,102116
2017-06-17T14:23:01.440Z,102120
2017-06-17T14:25:29.625Z,102121
2017-06-17T14:27:57.785Z,102121
2017-06-17T14:30:25.952Z,102120
2017-06-17T14:32:54.144Z,102115
2017-06-17T14:35:22.307Z,102115
2017-06-17T14:37:50.474Z,102131
2017-06-17T14:40:18.646Z,102128
2017-06-17T14:42:46.823Z,102125
2017-06-17T14:45:14.995Z,102132
2017-06-17T14:47:43.547Z,102130
2017-06-17T14:50:12.480Z,102131
2017-06-17T14:52:40.638Z,102137
2017-06-17T14:55:08.839Z,102142
2017-06-17T14:57:37.025Z,102141
2017-06-17T15:00:05.174Z,102143
2017-06-17T15:02:33.349Z,102144
2017-06-17T15:05:01.631Z,102143
2017-06-17T15:07:31.004Z,102153
2017-06-17T15:09:59.204Z,102146
2017-06-17T15:12:27.355Z,102142
2017-06-17T15:14:55.531Z,102141
2017-06-17T15:17:24.532Z,102138
2017-06-17T15:19:52.689Z,102149
2017-06-17T15:22:21.640Z,102145
2017-06-17T15:24:49.815Z,102146
2017-06-17T15:27:17.978Z,102142
2017-06-17T15:29:46.159Z,102139
2017-06-17T15:32:14.339Z,102148
2017-06-17T15:34:42.495Z,102142
2017-06-17T15:37:10.674Z,102136
2017-06-17T15:39:38.882Z,102139
2017-06-17T15:42:07.042Z,102129
2017-06-17T15:44:35.994Z,102141
2017-06-17T15:47:06.009Z,102130
2017-06-17T15:49:34.208Z,102133
2017-06-17T15:52:04.150Z,102136
2017-06-17T15:54:37.724Z,102138
2017-06-17T15:57:06.132Z,102129
2017-06-17T15:59:34.330Z,102133
2017-06-17T16:02:03.370Z,102130
2017-06-17T16:04:31.618Z,102131
2017-06-17T16:06:59.859Z,102128
2017-06-17T16:09:28.091Z,102134
2017-06-17T16:11:56.260Z,102116
2017-06-17T16:14:24.518Z,102130
2017-06-17T16:16:52.676Z,102132
2017-06-17T16:19:20.894Z,102127
2017-06-17T16:21:49.156Z,102120
2017-06-17T16:24:17.307Z,102131
2017-06-17T16:26:46.350Z,102137
2017-06-17T16:29:14.536Z,102139
2017-06-17T16:31:43.493Z,102133
2017-06-17T16:34:11.642Z,102136
2017-06-17T16:36:39.880Z,102138
2017-06-17T16:39:09.481Z,102139
2017-06-17T16:41:38.421Z,102144
2017-06-17T16:44:07.430Z,102135
2017-06-17T16:46:35.583Z,102138
2017-06-17T16:49:03.750Z,102140
2017-06-17T16:51:31.949Z,102141
2017-06-17T16:54:00.310Z,102138
2017-06-17T16:56:29.750Z,102142
2017-06-17T16:58:57.928Z,102141
2017-06-17T17:01:26.095Z,102135
2017-06-17T17:03:54.233Z,102146
2017-06-17T17:06:22.434Z,102148
2017-06-17T17:08:50.628Z,102144
2017-06-17T17:11:18.845Z,102150
2017-06-17T17:13:47.040Z,102160
2017-06-17T17:16:15.186Z,102160
2017-06-17T17:18:44.097Z,102162
2017-06-17T17:21:12.284Z,102154
2017-06-17T17:23:40.444Z,102147
2017-06-17T17:26:08.643Z,102152
2017-06-17T17:28:36.858Z,102142
2017-06-17T17:31:05.023Z,102138
2017-06-17T17:33:33.172Z,102142
2017-06-17T17:36:01.350Z,102133
2017-06-17T17:38:29.616Z,102138
2017-06-17T17:40:57.865Z,102136
2017-06-17T17:43:26.061Z,102139
2017-06-17T17:45:54.232Z,102132
2017-06-17T17:48:22.405Z,102133
2017-06-17T17:50:50.581Z,102141
2017-06-17T17:53:18.876Z,102140
2017-06-17T17:55:47.043Z,102148
2017-06-17T17:58:15.222Z,102146
2017-06-17T18:00:43.373Z,102149
2017-06-17T18:03:11.527Z,102153
2017-06-17T18:05:40.609Z,102149
2017-06-17T18:08:08.772Z,102154
2017-06-17T18:10:36.970Z,102151
2017-06-17T18:13:05.959Z,102148
2017-06-17T18:15:34.914Z,102151
2017-06-17T18:18:03.082Z,102149
2017-06-17T18:20:31.308Z,102162
2017-06-17T18:23:00.236Z,102157
2017-06-17T18:25:28.452Z,102164
2017-06-17T18:27:56.626Z,102167
2017-06-17T18:30:24.884Z,102170
2017-06-17T18:32:53.082Z,102173
2017-06-17T18:35:21.300Z,102172
2017-06-17T18:37:50.228Z,102172
2017-06-17T18:40:18.381Z,102162
2017-06-17T18:42:46.644Z,102168
2017-06-17T18:45:14.797Z,102177
2017-06-17T18:47:43.718Z,102162
2017-06-17T18:50:11.915Z,102161
2017-06-17T18:52:40.088Z,102157
2017-06-17T18:55:08.270Z,102165
2017-06-17T18:57:36.465Z,102157
2017-06-17T19:00:04.621Z,102162
2017-06-17T19:02:32.787Z,102166
2017-06-17T19:05:00.990Z,102170
2017-06-17T19:07:29.173Z,102172
2017-06-17T19:09:57.329Z,102173
2017-06-17T19:12:25.554Z,102170
2017-06-17T19:14:53.758Z,102176
2017-06-17T19:17:21.932Z,102176
2017-06-17T19:19:50.121Z,102174
2017-06-17T19:22:18.264Z,102183
2017-06-17T19:24:46.429Z,102183
2017-06-17T19:27:14.626Z,102185
2017-06-17T19:29:42.777Z,102182
2017-06-17T19:32:10.940Z,102186
2017-06-17T19:34:39.919Z,102190
2017-06-17T19:37:08.854Z,102187
2017-06-17T19:39:37.020Z,102185
2017-06-17T19:42:05.216Z,102188
2017-06-17T19:44:33.413Z,102191
2017-06-17T19:47:01.580Z,102189
2017-06-17T19:49:29.761Z,102186
2017-06-17T19:51:57.955Z,102196
2017-06-17T19:54:26.890Z,102191
2017-06-17T19:56:55.074Z,102197
2017-06-17T19:59:23.227Z,102191
2017-06-17T20:01:51.373Z,102199
2017-06-17T20:04:20.372Z,102194
2017-06-17T20:06:49.315Z,102189
2017-06-17T20:09:17.465Z,102196
2017-06-17T20:11:45.664Z,102194
2017-06-17T20:14:13.817Z,102198
2017-06-17T20:16:41.961Z,102199
2017-06-17T20:19:10.906Z,102201
2017-06-17T20:21:44.514Z,102206
2017-06-17T20:24:18.213Z,102217
2017-06-17T20:26:46.369Z,102214
2017-06-17T20:29:14.518Z,102219
2017-06-17T20:31:43.466Z,102218
2017-06-17T20:34:11.630Z,102224
2017-06-17T20:36:39.782Z,102227
2017-06-17T20:39:07.953Z,102229
2017-06-17T20:41:36.099Z,102234
2017-06-17T20:44:05.599Z,102230
2017-06-17T20:46:33.822Z,102229
2017-06-17T20:49:02.122Z,102223
2017-06-17T20:51:30.530Z,102227
2017-06-17T20:53:59.534Z,102228
2017-06-17T20:56:27.975Z,102238
2017-06-17T20:58:56.175Z,102245
2017-06-17T21:01:24.393Z,102252
2017-06-17T21:03:52.581Z,102253
2017-06-17T21:06:20.895Z,102250
2017-06-17T21:08:49.097Z,102256
2017-06-17T21:11:17.252Z,102249
2017-06-17T21:13:45.427Z,102255
2017-06-17T21:16:13.610Z,102258
2017-06-17T21:18:41.774Z,102251
2017-06-17T21:21:09.941Z,102252
2017-06-17T21:23:38.125Z,102260
2017-06-17T21:26:06.365Z,102265
2017-06-17T21:28:34.591Z,102261
2017-06-17T21:31:02.787Z,102265
2017-06-17T21:33:31.016Z,102271
2017-06-17T21:35:59.272Z,102273
2017-06-17T21:38:28.237Z,102282
2017-06-17T21:40:56.724Z,102276
2017-06-17T21:43:25.145Z,102284
2017-06-17T21:45:53.500Z,102286
2017-06-17T21:48:21.739Z,102295
2017-06-17T21:50:49.900Z,102292
2017-06-17T21:53:19.167Z,102298
2017-06-17T21:55:48.315Z,102301
2017-06-17T21:58:16.469Z,102294
2017-06-17T22:00:45.435Z,102298
2017-06-17T22:03:13.588Z,102298
2017-06-17T22:05:41.761Z,102289
2017-06-17T22:08:09.956Z,102289
2017-06-17T22:10:38.120Z,102291
2017-06-17T22:13:06.280Z,102295
2017-06-17T22:15:34.478Z,102286
2017-06-17T22:18:02.622Z,102287
2017-06-17T22:20:30.767Z,102287
2017-06-17T22:22:58.941Z,102288
2017-06-17T22:25:27.091Z,102284
2017-06-17T22:27:55.250Z,102287
2017-06-17T22:30:23.455Z,102283
2017-06-17T22:32:51.607Z,102279
2017-06-17T22:35:19.774Z,102285
2017-06-17T22:37:47.969Z,102283
2017-06-17T22:40:16.904Z,102280
2017-06-17T22:42:45.069Z,102280
2017-06-17T22:45:13.246Z,102288
2017-06-17T22:47:41.411Z,102280
2017-06-17T22:50:09.577Z,102288
2017-06-17T22:52:37.750Z,102289
2017-06-17T22:55:05.921Z,102289
2017-06-17T22:57:34.852Z,102285
2017-06-17T23:00:03.038Z,102290
2017-06-17T23:02:31.198Z,102296
2017-06-17T23:04:59.350Z,102287
2017-06-17T23:07:27.546Z,102300
2017-06-17T23:09:55.694Z,102290
2017-06-17T23:12:23.860Z,102298
2017-06-17T23:14:52.800Z,102295
2017-06-17T23:17:20.946Z,102294
2017-06-17T23:19:49.091Z,102287
2017-06-17T23:22:18.029Z,102290
2017-06-17T23:24:46.199Z,102291
2017-06-17T23:27:14.360Z,102288
2017-06-17T23:29:42.553Z,102296
2017-06-17T23:32:10.702Z,102286
2017-06-17T23:34:38.847Z,102290
2017-06-17T23:37:07.025Z,102288
2017-06-17T23:39:35.956Z,102282
2017-06-17T23:42:04.117Z,102285
2017-06-17T23:44:32.305Z,102288
2017-06-17T23:47:00.472Z,102297
2017-06-17T23:49:28.643Z,102285
2017-06-17T23:51:56.825Z,102288
2017-06-17T23:54:24.997Z,102287
2017-06-17T23:56:53.170Z,102293
2017-06-17T23:59:21.380Z,102297
